Home   Weather   United Kingdom   Stockport   Past weeks
Flag for United Kingdom

Past Weather in Stockport, England, United Kingdom — Yesterday and Last 2 Weeks

Currently: 37 °F. Chilly. (Weather station: Manchester Airport, United Kingdom). See more current weather

Past Weather in Stockport — Graph

°F

Stockport Temperature Yesterday

Maximum temperature yesterday: 46 °F (at 8:50 am)
Minimum temperature yesterday: 37 °F (at 12:20 am)
Average temperature yesterday: 43 °F

High & Low Weather Summary for the Past Weeks

 TemperatureHumidityPressure
High48 °F (Jan 10, 8:20 pm)100% (Jan 5, 9:20 pm)30.74 "Hg (Jan 5, 9:20 pm)
Low27 °F (Jan 18, 4:50 am)57% (Jan 5, 2:20 pm)29.27 "Hg (Jan 8, 1:50 pm)
Average38 °F91%30.23 "Hg
* Reported Jan 5 10:20 am — Jan 20 10:50 am, Stockport. Weather by CustomWeather, © 2022

Note: Actual official high and low records may vary slightly from our data, if they occured in-between our weather recording intervals... More about our weather records

Stockport Weather History for the Previous 24 Hours

Scroll right to see more
 ConditionsComfort  
Time TempWeatherWind HumidityBarometerVisibility
10:50 am
Thu, Jan 20
36 °FChilly.2 mph87%30.69 "HgN/A
10:20 am34 °FChilly.1 mph93%30.66 "HgN/A
9:50 am32 °FChilly.1 mph93%30.66 "HgN/A
9:20 am28 °FChilly.1 mph100%30.66 "HgN/A
8:50 am28 °FSunny.1 mph100%30.63 "Hg10 mi
8:20 am32 °FLight fog.3 mph100%30.63 "HgN/A
7:50 am27 °FLight fog.2 mph100%30.60 "HgN/A
7:20 am27 °FLight fog.1 mph100%30.60 "Hg1 mi
6:50 am27 °FIce fog.1 mph100%30.60 "Hg1 mi
6:20 am27 °FIce fog.1 mph100%30.57 "Hg1 mi
5:50 am28 °FIce fog.2 mph100%30.57 "Hg0 mi
4:50 am28 °FIce fog.1 mph100%30.54 "Hg0 mi
4:20 am28 °FPassing clouds.2 mph100%30.54 "Hg4 mi
3:50 am30 °FFog.1 mph100%30.54 "Hg2 mi
3:20 am30 °FIce fog.2 mph93%30.54 "Hg1 mi
2:50 am30 °FClear.1 mph100%30.51 "Hg4 mi
1:50 am32 °FChilly.1 mph93%30.51 "HgN/A
1:20 am34 °FChilly.2 mph93%30.48 "HgN/A
12:50 am37 °FChilly.3 mph87%30.48 "HgN/A
12:20 am39 °FChilly.6 mph87%30.48 "HgN/A
11:50 pm
Wed, Jan 19
39 °FChilly.7 mph87%30.48 "HgN/A
11:20 pm39 °FChilly.7 mph87%30.45 "HgN/A
10:50 pm39 °FChilly.7 mph87%30.45 "HgN/A
9:50 pm39 °FChilly.7 mph87%30.45 "HgN/A
9:20 pm41 °FQuite cool.8 mph81%30.42 "HgN/A
8:20 pm39 °FChilly.2 mph87%30.42 "HgN/A
7:50 pm41 °FQuite cool.6 mph81%30.39 "HgN/A
7:20 pm41 °FQuite cool.3 mph81%30.39 "HgN/A
6:50 pm41 °FQuite cool.6 mph87%30.39 "HgN/A
6:20 pm41 °FQuite cool.12 mph81%30.39 "HgN/A
5:50 pm43 °FQuite cool.12 mph81%30.36 "HgN/A
5:20 pm43 °FQuite cool.10 mph81%30.36 "HgN/A
4:50 pm43 °FQuite cool.13 mph81%30.33 "HgN/A
4:20 pm45 °FQuite cool.12 mph76%30.30 "HgN/A
3:50 pm45 °FPassing clouds.15 mph76%30.30 "HgN/A
3:20 pm46 °FPartly sunny.14 mph71%30.33 "HgN/A
2:50 pm46 °FScattered clouds.10 mph71%30.30 "HgN/A
2:20 pm46 °FCool.18 mph71%30.30 "HgN/A
1:50 pm46 °FPartly sunny.15 mph71%30.30 "HgN/A
1:20 pm46 °FPartly sunny.13 mph71%30.30 "HgN/A
12:50 pm46 °FScattered clouds.14 mph76%30.27 "HgN/A
12:20 pm46 °FScattered clouds.14 mph76%30.27 "HgN/A
11:50 am46 °FPartly sunny.12 mph76%30.27 "HgN/A
Weather by CustomWeather, © 2022

See weather overview